createdAt,value
2018-07-09T00:00:13.506Z,3.60
2018-07-09T00:01:13.501Z,3.80
2018-07-09T00:02:13.496Z,3.60
2018-07-09T00:03:13.519Z,3.90
2018-07-09T00:04:13.502Z,3.50
2018-07-09T00:05:13.492Z,3.80
2018-07-09T00:06:13.506Z,3.70
2018-07-09T00:07:13.490Z,3.60
2018-07-09T00:08:13.498Z,3.90
2018-07-09T00:09:13.483Z,4.00
2018-07-09T00:10:13.481Z,3.50
2018-07-09T00:11:13.488Z,3.60
2018-07-09T00:12:13.490Z,3.70
2018-07-09T00:13:13.483Z,3.70
2018-07-09T00:14:13.473Z,3.80
2018-07-09T00:15:13.472Z,3.40
2018-07-09T00:16:13.477Z,3.90
2018-07-09T00:17:13.473Z,3.60
2018-07-09T00:18:13.469Z,3.90
2018-07-09T00:19:13.505Z,3.30
2018-07-09T00:20:13.460Z,3.70
2018-07-09T00:21:13.467Z,3.40
2018-07-09T00:22:13.456Z,3.40
2018-07-09T00:23:13.457Z,3.60
2018-07-09T00:24:13.452Z,3.70
2018-07-09T00:25:13.452Z,3.80
2018-07-09T00:26:13.475Z,3.50
2018-07-09T00:27:13.446Z,3.60
2018-07-09T00:28:13.451Z,3.20
2018-07-09T00:29:13.473Z,3.30
2018-07-09T00:30:13.466Z,3.20
2018-07-09T00:31:13.445Z,3.00
2018-07-09T00:32:13.493Z,3.20
2018-07-09T00:33:13.433Z,2.70
2018-07-09T00:34:13.439Z,3.10
2018-07-09T00:35:13.435Z,3.10
2018-07-09T00:36:13.425Z,3.40
2018-07-09T00:37:13.428Z,3.30
2018-07-09T00:38:13.423Z,3.00
2018-07-09T00:39:13.424Z,3.30
2018-07-09T00:40:13.417Z,3.30
2018-07-09T00:41:13.421Z,2.80
2018-07-09T00:42:13.464Z,3.00
2018-07-09T00:43:13.412Z,2.70
2018-07-09T00:44:13.417Z,2.90
2018-07-09T00:45:13.414Z,3.40
2018-07-09T00:46:13.406Z,3.00
2018-07-09T00:47:13.413Z,3.50
2018-07-09T00:48:13.408Z,2.80
2018-07-09T00:49:13.399Z,2.90
2018-07-09T00:50:13.401Z,3.20
2018-07-09T00:51:13.406Z,2.90
2018-07-09T00:52:13.430Z,3.10
2018-07-09T00:53:13.397Z,3.40
2018-07-09T00:54:13.396Z,3.10
2018-07-09T00:55:13.393Z,3.60
2018-07-09T00:56:13.383Z,3.20
2018-07-09T00:57:13.381Z,2.80
2018-07-09T00:58:13.378Z,3.40
2018-07-09T00:59:13.414Z,3.10
2018-07-09T01:00:13.381Z,3.00
2018-07-09T01:01:13.373Z,3.60
2018-07-09T01:02:13.403Z,2.80
2018-07-09T01:03:13.368Z,3.30
2018-07-09T01:04:13.363Z,3.30
2018-07-09T01:05:13.364Z,3.10
2018-07-09T01:06:13.360Z,2.90
2018-07-09T01:07:13.358Z,3.20
2018-07-09T01:08:13.353Z,2.90
2018-07-09T01:09:13.354Z,3.20
2018-07-09T01:10:13.352Z,2.60
2018-07-09T01:11:13.403Z,2.90
2018-07-09T01:12:13.346Z,2.80
2018-07-09T01:13:13.344Z,2.80
2018-07-09T01:14:13.345Z,3.00
2018-07-09T01:15:13.338Z,3.20
2018-07-09T01:16:13.336Z,3.00
2018-07-09T01:17:13.333Z,2.80
2018-07-09T01:18:13.333Z,2.60
2018-07-09T01:19:13.328Z,3.00
2018-07-09T01:20:13.331Z,3.30
2018-07-09T01:21:13.324Z,2.90
2018-07-09T01:22:13.321Z,2.50
2018-07-09T01:23:13.318Z,2.70
2018-07-09T01:24:13.323Z,2.50
2018-07-09T01:25:13.312Z,2.50
2018-07-09T01:26:13.311Z,3.10
2018-07-09T01:27:13.312Z,2.60
2018-07-09T01:28:13.311Z,3.00
2018-07-09T01:29:13.312Z,3.30
2018-07-09T01:30:13.312Z,2.70
2018-07-09T01:31:13.300Z,2.90
2018-07-09T01:32:13.298Z,2.90
2018-07-09T01:33:13.291Z,3.10
2018-07-09T01:34:13.288Z,2.60
2018-07-09T01:35:13.322Z,2.40
2018-07-09T01:36:13.282Z,2.80
2018-07-09T01:37:13.284Z,2.60
2018-07-09T01:38:13.284Z,2.70
2018-07-09T01:39:13.276Z,3.10
2018-07-09T01:40:13.280Z,2.90
2018-07-09T01:41:13.275Z,3.00
2018-07-09T01:42:13.269Z,2.80
2018-07-09T01:43:13.263Z,2.80
2018-07-09T01:44:13.257Z,2.80
2018-07-09T01:45:13.258Z,2.90
2018-07-09T01:46:13.253Z,2.80
2018-07-09T01:47:13.251Z,2.90
2018-07-09T01:48:13.250Z,3.40
2018-07-09T01:49:13.247Z,3.00
2018-07-09T01:50:13.249Z,3.00
2018-07-09T01:51:13.239Z,2.80
2018-07-09T01:52:13.236Z,3.10
2018-07-09T01:53:13.233Z,2.80
2018-07-09T01:54:13.234Z,2.70
2018-07-09T01:55:13.262Z,2.80
2018-07-09T01:56:13.223Z,3.00
2018-07-09T01:57:13.228Z,2.70
2018-07-09T01:58:13.218Z,3.10
2018-07-09T01:59:13.215Z,2.90
2018-07-09T02:00:13.218Z,3.10
2018-07-09T02:01:13.216Z,2.90
2018-07-09T02:02:13.216Z,2.80
2018-07-09T02:03:13.202Z,2.90
2018-07-09T02:04:13.206Z,3.00
2018-07-09T02:05:13.226Z,2.80
2018-07-09T02:06:13.197Z,2.90
2018-07-09T02:07:13.195Z,3.00
2018-07-09T02:08:13.191Z,2.90
2018-07-09T02:09:13.185Z,2.60
2018-07-09T02:10:13.186Z,2.90
2018-07-09T02:11:13.178Z,2.70
2018-07-09T02:12:13.181Z,2.70
2018-07-09T02:13:13.173Z,3.00
2018-07-09T02:14:13.169Z,2.90
2018-07-09T02:15:13.193Z,3.00
2018-07-09T02:16:13.167Z,2.80
2018-07-09T02:17:13.160Z,2.60
2018-07-09T02:18:13.162Z,2.80
2018-07-09T02:19:13.159Z,2.70
2018-07-09T02:20:13.165Z,2.80
2018-07-09T02:21:13.150Z,2.70
2018-07-09T02:22:13.144Z,3.00
2018-07-09T02:23:13.143Z,3.00
2018-07-09T02:24:13.144Z,2.80
2018-07-09T02:25:13.164Z,2.90
2018-07-09T02:26:13.133Z,3.00
2018-07-09T02:27:13.138Z,2.80
2018-07-09T02:28:13.127Z,2.60
2018-07-09T02:29:13.132Z,3.10
2018-07-09T02:30:13.126Z,2.20
2018-07-09T02:31:13.127Z,2.60
2018-07-09T02:32:13.122Z,2.80
2018-07-09T02:33:13.161Z,2.30
2018-07-09T02:34:13.118Z,2.70
2018-07-09T02:35:13.128Z,2.30
2018-07-09T02:36:13.105Z,2.70
2018-07-09T02:37:13.101Z,2.50
2018-07-09T02:38:13.099Z,2.70
2018-07-09T02:39:13.095Z,2.90
2018-07-09T02:40:13.093Z,2.50
2018-07-09T02:41:13.088Z,2.60
2018-07-09T02:42:13.092Z,2.70
2018-07-09T02:43:13.085Z,2.40
2018-07-09T02:44:13.079Z,2.80
2018-07-09T02:45:13.097Z,2.60
2018-07-09T02:46:13.079Z,2.50
2018-07-09T02:47:13.080Z,2.50
2018-07-09T02:48:13.072Z,2.80
2018-07-09T02:49:13.124Z,2.20
2018-07-09T02:50:13.075Z,2.60
2018-07-09T02:51:13.069Z,2.30
2018-07-09T02:52:13.125Z,2.40
2018-07-09T02:53:13.058Z,2.50
2018-07-09T02:54:13.176Z,2.30
2018-07-09T02:55:13.065Z,2.60
2018-07-09T02:56:13.161Z,2.50
2018-07-09T02:57:13.039Z,2.60
2018-07-09T02:58:13.043Z,2.30
2018-07-09T02:59:13.037Z,2.50
2018-07-09T03:00:13.027Z,2.50
2018-07-09T03:01:13.202Z,2.40
2018-07-09T03:02:13.029Z,2.70
2018-07-09T03:03:13.033Z,2.50
2018-07-09T03:04:13.029Z,2.70
2018-07-09T03:05:13.034Z,2.80
2018-07-09T03:06:13.013Z,2.50
2018-07-09T03:07:13.010Z,2.50
2018-07-09T03:08:13.009Z,2.70
2018-07-09T03:09:13.005Z,2.30
2018-07-09T03:10:12.997Z,2.60
2018-07-09T03:11:12.994Z,2.50
2018-07-09T03:12:12.996Z,2.40
2018-07-09T03:13:12.996Z,2.60
2018-07-09T03:14:12.985Z,2.40
2018-07-09T03:15:13.004Z,2.40
2018-07-09T03:16:12.977Z,2.80
2018-07-09T03:17:12.983Z,2.60
2018-07-09T03:18:12.976Z,2.50
2018-07-09T03:19:13.081Z,2.40
2018-07-09T03:20:12.968Z,2.30
2018-07-09T03:21:12.962Z,2.40
2018-07-09T03:22:12.958Z,2.80
2018-07-09T03:23:12.955Z,2.30
2018-07-09T03:24:12.949Z,2.80
2018-07-09T03:25:12.969Z,2.90
2018-07-09T03:26:12.951Z,2.80
2018-07-09T03:27:12.944Z,2.30
2018-07-09T03:28:12.941Z,2.20
2018-07-09T03:29:12.933Z,2.80
2018-07-09T03:30:12.939Z,2.40
2018-07-09T03:31:12.932Z,2.50
2018-07-09T03:32:12.929Z,2.70
2018-07-09T03:33:12.925Z,2.30
2018-07-09T03:34:12.919Z,2.50
2018-07-09T03:35:12.915Z,2.30
2018-07-09T03:36:12.907Z,2.60
2018-07-09T03:37:12.905Z,2.30
2018-07-09T03:38:12.902Z,2.50
2018-07-09T03:39:12.899Z,2.30
2018-07-09T03:40:12.899Z,2.40
2018-07-09T03:41:12.898Z,2.60
2018-07-09T03:42:12.890Z,2.30
2018-07-09T03:43:12.889Z,2.30
2018-07-09T03:44:12.882Z,2.30
2018-07-09T03:45:12.889Z,2.50
2018-07-09T03:46:12.880Z,2.30
2018-07-09T03:47:12.870Z,1.90
2018-07-09T03:48:12.872Z,2.20
2018-07-09T03:49:12.863Z,2.20
2018-07-09T03:50:12.860Z,2.30
2018-07-09T03:51:12.863Z,1.90
2018-07-09T03:52:12.859Z,2.40
2018-07-09T03:53:12.850Z,2.30
2018-07-09T03:54:12.854Z,2.40
2018-07-09T03:55:12.853Z,2.60
2018-07-09T03:56:12.838Z,2.20
2018-07-09T03:57:12.839Z,2.30
2018-07-09T03:58:12.832Z,2.50
2018-07-09T03:59:12.833Z,2.70
2018-07-09T04:00:12.832Z,2.40
2018-07-09T04:01:12.830Z,1.90
2018-07-09T04:02:12.828Z,2.30
2018-07-09T04:03:12.827Z,2.10
2018-07-09T04:04:12.814Z,1.90
2018-07-09T04:05:12.815Z,2.40
2018-07-09T04:06:12.819Z,2.30
2018-07-09T04:07:12.815Z,2.20
2018-07-09T04:08:12.795Z,2.60
2018-07-09T04:09:12.798Z,2.00
2018-07-09T04:10:12.792Z,2.20
2018-07-09T04:11:12.802Z,2.30
2018-07-09T04:12:12.788Z,2.30
2018-07-09T04:13:12.789Z,1.80
2018-07-09T04:14:12.784Z,2.00
2018-07-09T04:15:12.773Z,1.90
2018-07-09T04:16:12.780Z,2.50
2018-07-09T04:17:12.765Z,2.20
2018-07-09T04:18:12.765Z,1.90
2018-07-09T04:19:12.760Z,2.40
2018-07-09T04:20:12.754Z,2.30
2018-07-09T04:21:12.791Z,2.20
2018-07-09T04:22:12.757Z,1.90
2018-07-09T04:23:12.757Z,2.10
2018-07-09T04:24:12.742Z,1.90
2018-07-09T04:25:12.738Z,2.00
2018-07-09T04:26:12.761Z,2.00
2018-07-09T04:27:12.735Z,2.50
2018-07-09T04:28:12.728Z,2.00
2018-07-09T04:29:12.726Z,2.20
2018-07-09T04:30:12.723Z,2.10
2018-07-09T04:31:12.724Z,2.60
2018-07-09T04:32:12.723Z,2.80
2018-07-09T04:33:12.716Z,2.50
2018-07-09T04:34:12.738Z,2.40
2018-07-09T04:35:12.717Z,2.50
2018-07-09T04:36:12.709Z,2.60
2018-07-09T04:37:12.710Z,2.60
2018-07-09T04:38:12.709Z,2.10
2018-07-09T04:39:12.721Z,2.70
2018-07-09T04:40:12.705Z,2.60
2018-07-09T04:41:12.711Z,2.80
2018-07-09T04:42:12.709Z,2.90
2018-07-09T04:43:12.745Z,2.50
2018-07-09T04:44:12.707Z,2.50
2018-07-09T04:45:12.714Z,2.50
2018-07-09T04:46:12.707Z,2.30
2018-07-09T04:47:12.716Z,2.50
2018-07-09T04:48:12.710Z,2.70
2018-07-09T04:49:12.719Z,2.50
2018-07-09T04:50:12.726Z,2.70
2018-07-09T04:51:12.714Z,2.30
2018-07-09T04:52:12.720Z,2.20
2018-07-09T04:53:12.726Z,2.40
2018-07-09T04:54:12.730Z,1.90
2018-07-09T04:55:12.736Z,3.00
2018-07-09T04:56:12.731Z,2.90
2018-07-09T04:57:12.733Z,2.90
2018-07-09T04:58:12.735Z,2.90
2018-07-09T04:59:12.747Z,2.70
2018-07-09T05:00:12.742Z,3.00
2018-07-09T05:01:12.747Z,3.10
2018-07-09T05:02:12.754Z,3.00
2018-07-09T05:03:12.753Z,3.30
2018-07-09T05:04:12.762Z,3.20
2018-07-09T05:05:12.762Z,2.80
2018-07-09T05:06:12.766Z,3.10
2018-07-09T05:07:12.778Z,3.10
2018-07-09T05:08:12.783Z,2.90
2018-07-09T05:09:12.782Z,2.80
2018-07-09T05:10:12.800Z,2.80
2018-07-09T05:11:12.794Z,2.60
2018-07-09T05:12:12.794Z,2.80
2018-07-09T05:13:12.813Z,3.00
2018-07-09T05:14:12.801Z,2.70
2018-07-09T05:15:12.803Z,2.50
2018-07-09T05:16:12.811Z,2.80
2018-07-09T05:17:12.822Z,2.80
2018-07-09T05:18:12.815Z,2.70
2018-07-09T05:19:12.820Z,2.50
2018-07-09T05:20:12.824Z,2.70
2018-07-09T05:21:12.827Z,2.90
2018-07-09T05:22:12.839Z,2.70
2018-07-09T05:23:12.847Z,2.80
2018-07-09T05:24:12.835Z,2.80
2018-07-09T05:25:12.842Z,2.70
2018-07-09T05:26:12.854Z,3.10
2018-07-09T05:27:12.846Z,2.80
2018-07-09T05:28:12.850Z,2.90
2018-07-09T05:29:12.860Z,2.70
2018-07-09T05:30:12.860Z,3.00
2018-07-09T05:31:12.861Z,3.10
2018-07-09T05:32:12.859Z,2.90
2018-07-09T05:33:12.868Z,2.90
2018-07-09T05:34:12.871Z,2.90
2018-07-09T05:35:12.883Z,3.00
2018-07-09T05:36:12.866Z,2.70
2018-07-09T05:37:12.870Z,2.90
2018-07-09T05:38:12.878Z,3.10
2018-07-09T05:39:12.878Z,3.20
2018-07-09T05:40:12.879Z,2.60
2018-07-09T05:41:12.871Z,2.60
2018-07-09T05:42:12.869Z,2.80
2018-07-09T05:43:12.872Z,2.80
2018-07-09T05:44:12.876Z,2.40
2018-07-09T05:45:12.873Z,2.70
2018-07-09T05:46:12.870Z,2.90
2018-07-09T05:47:12.874Z,2.70
2018-07-09T05:48:12.869Z,2.70
2018-07-09T05:49:12.875Z,2.60
2018-07-09T05:50:12.884Z,2.40
2018-07-09T05:51:12.871Z,2.80
2018-07-09T05:52:12.885Z,2.60
2018-07-09T05:53:12.875Z,2.70
2018-07-09T05:54:12.874Z,2.40
2018-07-09T05:55:12.869Z,2.40
2018-07-09T05:56:12.866Z,3.00
2018-07-09T05:57:12.873Z,2.60
2018-07-09T05:58:12.877Z,2.80
2018-07-09T05:59:12.868Z,2.70
2018-07-09T06:00:12.869Z,2.90
2018-07-09T06:01:12.867Z,2.70
2018-07-09T06:02:12.870Z,2.70
2018-07-09T06:03:12.867Z,2.40
2018-07-09T06:04:12.866Z,2.20
2018-07-09T06:05:12.869Z,2.70
2018-07-09T06:06:12.868Z,2.50
2018-07-09T06:07:12.868Z,2.40
2018-07-09T06:08:12.861Z,2.40
2018-07-09T06:09:12.869Z,2.70
2018-07-09T06:10:12.865Z,2.10
2018-07-09T06:11:12.901Z,2.10
2018-07-09T06:12:12.863Z,2.20
2018-07-09T06:13:12.880Z,2.50
2018-07-09T06:14:12.859Z,2.60
2018-07-09T06:15:12.858Z,2.60
2018-07-09T06:16:12.860Z,2.80
2018-07-09T06:17:12.858Z,2.10
2018-07-09T06:18:12.856Z,2.40
2018-07-09T06:19:12.885Z,2.70
2018-07-09T06:20:12.860Z,2.70
2018-07-09T06:21:12.858Z,2.80
2018-07-09T06:22:12.869Z,2.50
2018-07-09T06:23:12.863Z,3.00
2018-07-09T06:24:12.865Z,2.50
2018-07-09T06:25:12.871Z,3.20
2018-07-09T06:26:12.857Z,2.70
2018-07-09T06:27:12.864Z,2.40
2018-07-09T06:28:12.854Z,2.80
2018-07-09T06:29:12.862Z,2.80
2018-07-09T06:30:12.860Z,2.60
2018-07-09T06:31:12.861Z,2.90
2018-07-09T06:32:12.856Z,2.80
2018-07-09T06:33:12.852Z,2.70
2018-07-09T06:34:12.851Z,2.60
2018-07-09T06:35:12.853Z,2.60
2018-07-09T06:36:12.857Z,2.40
2018-07-09T06:37:12.850Z,2.50
2018-07-09T06:38:12.849Z,2.20
2018-07-09T06:39:12.847Z,2.70
2018-07-09T06:40:12.862Z,2.60
2018-07-09T06:41:12.847Z,2.20
2018-07-09T06:42:12.848Z,2.50
2018-07-09T06:43:12.847Z,2.40
2018-07-09T06:44:12.845Z,2.40
2018-07-09T06:45:12.849Z,2.40
2018-07-09T06:46:12.843Z,2.20
2018-07-09T06:47:12.845Z,2.60
2018-07-09T06:48:12.874Z,2.60
2018-07-09T06:49:12.845Z,2.40
2018-07-09T06:50:12.852Z,2.90
2018-07-09T06:51:12.862Z,2.80
2018-07-09T06:52:12.853Z,2.30
2018-07-09T06:53:12.842Z,2.30
2018-07-09T06:54:12.845Z,2.40
2018-07-09T06:55:12.844Z,2.30
2018-07-09T06:56:12.850Z,2.10
2018-07-09T06:57:12.852Z,2.10
2018-07-09T06:58:12.852Z,2.00
2018-07-09T06:59:12.842Z,2.20
2018-07-09T07:00:12.848Z,2.00
2018-07-09T07:01:12.845Z,1.90
2018-07-09T07:02:12.866Z,1.80
2018-07-09T07:03:12.842Z,1.80
2018-07-09T07:04:12.841Z,2.00
2018-07-09T07:05:12.852Z,1.80
2018-07-09T07:06:12.850Z,1.90
2018-07-09T07:07:12.843Z,1.80
2018-07-09T07:08:12.846Z,1.90
2018-07-09T07:09:13.015Z,1.70
2018-07-09T07:10:12.851Z,1.90
2018-07-09T07:11:12.858Z,1.70
2018-07-09T07:12:12.855Z,1.70
2018-07-09T07:13:12.844Z,1.90
2018-07-09T07:14:12.860Z,1.80
2018-07-09T07:15:12.851Z,1.90
2018-07-09T07:16:12.846Z,1.90
2018-07-09T07:17:12.844Z,1.70
2018-07-09T07:18:12.844Z,1.90
2018-07-09T07:19:12.846Z,1.70
2018-07-09T07:20:12.844Z,1.70
2018-07-09T07:21:12.844Z,1.60
2018-07-09T07:22:12.847Z,1.70
2018-07-09T07:23:12.846Z,1.70
2018-07-09T07:24:12.854Z,1.90
2018-07-09T07:25:12.853Z,1.90
2018-07-09T07:26:12.863Z,1.70
2018-07-09T07:27:12.855Z,1.60
2018-07-09T07:28:12.849Z,1.90
2018-07-09T07:29:12.853Z,1.60
2018-07-09T07:30:12.848Z,1.50
2018-07-09T07:31:12.850Z,1.80
2018-07-09T07:32:12.863Z,1.80
2018-07-09T07:33:12.882Z,1.50
2018-07-09T07:34:12.851Z,1.50
2018-07-09T07:35:12.853Z,1.40
2018-07-09T07:36:12.852Z,1.60
2018-07-09T07:37:12.858Z,1.50
2018-07-09T07:38:12.858Z,1.60
2018-07-09T07:39:12.862Z,1.80
2018-07-09T07:40:12.857Z,1.60
2018-07-09T07:41:12.856Z,1.70
2018-07-09T07:42:12.858Z,1.50
2018-07-09T07:43:12.863Z,1.60
2018-07-09T07:44:12.858Z,1.70
2018-07-09T07:45:12.867Z,1.50
2018-07-09T07:46:12.860Z,1.70
2018-07-09T07:47:12.875Z,1.40
2018-07-09T07:48:12.860Z,1.50
2018-07-09T07:49:12.871Z,1.50
2018-07-09T07:50:12.926Z,1.50
2018-07-09T07:51:12.870Z,1.60
2018-07-09T07:52:12.872Z,1.50
2018-07-09T07:53:12.870Z,1.60
2018-07-09T07:54:12.865Z,1.50
2018-07-09T07:55:12.865Z,1.60
2018-07-09T07:56:12.877Z,1.70
2018-07-09T07:57:12.876Z,1.70
2018-07-09T07:58:12.868Z,1.50
2018-07-09T07:59:12.871Z,1.60
2018-07-09T08:00:12.872Z,1.60
2018-07-09T08:01:12.875Z,1.30
2018-07-09T08:02:12.877Z,1.50
2018-07-09T08:03:12.874Z,1.50
2018-07-09T08:04:12.875Z,1.40
2018-07-09T08:05:12.879Z,1.30
2018-07-09T08:06:12.876Z,1.40
2018-07-09T08:07:12.882Z,1.50
2018-07-09T08:08:12.887Z,1.70
2018-07-09T08:09:12.925Z,1.90
2018-07-09T08:10:12.887Z,1.70
2018-07-09T08:11:12.888Z,1.30
2018-07-09T08:13:00.533Z,1.40
2018-07-09T08:13:27.989Z,1.50
2018-07-09T08:14:12.892Z,1.70
2018-07-09T08:15:12.897Z,1.50
2018-07-09T08:16:12.890Z,1.40
2018-07-09T08:17:12.888Z,1.50
2018-07-09T08:18:12.894Z,1.60
2018-07-09T08:19:12.898Z,1.80
2018-07-09T08:20:12.903Z,1.80
2018-07-09T08:21:12.895Z,1.50
2018-07-09T08:22:12.899Z,1.40
2018-07-09T08:23:12.910Z,1.60
2018-07-09T08:24:12.903Z,1.80
2018-07-09T08:25:12.904Z,1.50
2018-07-09T08:26:12.899Z,1.60
2018-07-09T08:27:12.910Z,1.60
2018-07-09T08:28:12.904Z,1.50
2018-07-09T08:29:12.907Z,1.50
2018-07-09T08:30:12.903Z,1.40
2018-07-09T08:31:13.000Z,1.50
2018-07-09T08:32:12.906Z,1.60
2018-07-09T08:33:12.905Z,1.70
2018-07-09T08:34:12.906Z,1.40
2018-07-09T08:35:12.915Z,1.40
2018-07-09T08:36:12.909Z,1.40
2018-07-09T08:37:12.923Z,1.30
2018-07-09T08:38:12.919Z,1.60
2018-07-09T08:39:12.916Z,1.60
2018-07-09T08:40:12.914Z,1.90
2018-07-09T08:41:12.915Z,1.70
2018-07-09T08:42:12.929Z,1.60
2018-07-09T08:43:12.919Z,1.80
2018-07-09T08:44:12.919Z,1.30
2018-07-09T08:45:12.922Z,1.90
2018-07-09T08:46:12.922Z,1.60
2018-07-09T08:47:12.924Z,1.30
2018-07-09T08:48:12.936Z,1.40
2018-07-09T08:49:12.931Z,1.40
2018-07-09T08:50:12.940Z,1.50
2018-07-09T08:51:12.933Z,1.20
2018-07-09T08:52:12.933Z,1.70
2018-07-09T08:53:12.946Z,1.70
2018-07-09T08:54:12.948Z,1.40
2018-07-09T08:55:12.956Z,1.30
2018-07-09T08:56:12.943Z,1.30
2018-07-09T08:57:12.945Z,1.60
2018-07-09T08:58:12.954Z,1.30
2018-07-09T08:59:12.945Z,1.30
2018-07-09T09:00:12.947Z,1.30
2018-07-09T09:01:12.949Z,1.70
2018-07-09T09:02:12.961Z,1.50
2018-07-09T09:03:12.963Z,1.60
2018-07-09T09:04:12.957Z,1.50
2018-07-09T09:05:12.956Z,1.30
2018-07-09T09:06:12.960Z,1.70
2018-07-09T09:07:12.962Z,1.40
2018-07-09T09:08:12.972Z,1.50
2018-07-09T09:09:12.965Z,1.70
2018-07-09T09:10:13.003Z,1.50
2018-07-09T09:11:12.969Z,1.40
2018-07-09T09:12:12.973Z,1.50
2018-07-09T09:13:12.974Z,1.50
2018-07-09T09:14:12.976Z,1.60
2018-07-09T09:15:12.990Z,1.30
2018-07-09T09:16:12.983Z,1.20
2018-07-09T09:17:12.982Z,1.40
2018-07-09T09:18:13.000Z,1.30
2018-07-09T09:19:12.996Z,1.30
2018-07-09T09:20:12.995Z,1.40
2018-07-09T09:21:12.996Z,1.50
2018-07-09T09:22:12.997Z,1.60
2018-07-09T09:23:13.010Z,1.40
2018-07-09T09:24:13.000Z,1.30
2018-07-09T09:25:13.000Z,1.40
2018-07-09T09:26:13.004Z,1.30
2018-07-09T09:27:13.007Z,1.60
2018-07-09T09:28:13.017Z,1.50
2018-07-09T09:29:13.011Z,1.40
2018-07-09T09:30:13.018Z,1.60
2018-07-09T09:31:13.035Z,1.50
2018-07-09T09:32:13.024Z,1.60
2018-07-09T09:33:13.030Z,1.40
2018-07-09T09:34:13.025Z,1.20
2018-07-09T09:35:13.043Z,1.20
2018-07-09T09:36:13.033Z,1.30
2018-07-09T09:37:13.035Z,1.40
2018-07-09T09:38:13.050Z,1.40
2018-07-09T09:39:13.038Z,1.70
2018-07-09T09:40:13.047Z,1.40
2018-07-09T09:41:13.045Z,1.40
2018-07-09T09:42:13.049Z,1.50
2018-07-09T09:43:13.153Z,1.30
2018-07-09T09:44:13.052Z,1.30
2018-07-09T09:45:13.061Z,1.60
2018-07-09T09:46:13.066Z,1.40
2018-07-09T09:47:13.064Z,1.50
2018-07-09T09:48:13.071Z,1.50
2018-07-09T09:49:13.083Z,1.60
2018-07-09T09:50:13.085Z,1.40
2018-07-09T09:51:13.074Z,1.50
2018-07-09T09:52:13.082Z,1.40
2018-07-09T09:53:13.082Z,1.60
2018-07-09T09:54:13.083Z,1.60
2018-07-09T09:55:13.099Z,1.40
2018-07-09T09:56:13.090Z,1.60
2018-07-09T09:57:13.103Z,1.70
2018-07-09T09:58:13.109Z,1.90
2018-07-09T09:59:13.107Z,1.90
2018-07-09T10:00:13.106Z,1.60
2018-07-09T10:01:13.106Z,1.60
2018-07-09T10:02:13.112Z,1.50
2018-07-09T10:03:13.127Z,1.80
2018-07-09T10:04:13.113Z,1.80
2018-07-09T10:05:13.119Z,1.70
2018-07-09T10:06:13.210Z,2.10
2018-07-09T10:07:13.139Z,1.70
2018-07-09T10:08:13.135Z,1.90
2018-07-09T10:09:13.143Z,1.80
2018-07-09T10:10:13.134Z,1.70
2018-07-09T10:11:13.138Z,1.60
2018-07-09T10:12:13.147Z,1.90
2018-07-09T10:13:13.142Z,1.70
2018-07-09T10:14:13.144Z,1.80
2018-07-09T10:15:13.159Z,1.70
2018-07-09T10:16:13.152Z,1.80
2018-07-09T10:17:13.162Z,1.40
2018-07-09T10:18:13.157Z,1.50
2018-07-09T10:19:13.172Z,1.70
2018-07-09T10:20:13.163Z,1.60
2018-07-09T10:21:13.176Z,1.60
2018-07-09T10:22:13.171Z,1.60
2018-07-09T10:23:13.279Z,1.50
2018-07-09T10:24:13.176Z,1.60
2018-07-09T10:25:13.178Z,1.80
2018-07-09T10:26:13.188Z,1.50
2018-07-09T10:27:13.191Z,1.60
2018-07-09T10:28:13.188Z,1.60
2018-07-09T10:29:13.201Z,1.80
2018-07-09T10:30:13.196Z,1.80
2018-07-09T10:31:13.212Z,1.60
2018-07-09T10:32:13.203Z,1.60
2018-07-09T10:33:13.206Z,1.70
2018-07-09T10:34:13.215Z,1.80
2018-07-09T10:35:13.219Z,1.70
2018-07-09T10:36:13.226Z,2.00
2018-07-09T10:37:13.225Z,1.60
2018-07-09T10:38:13.219Z,1.90
2018-07-09T10:39:13.223Z,1.70
2018-07-09T10:40:13.230Z,1.80
2018-07-09T10:41:13.235Z,1.70
2018-07-09T10:42:13.246Z,1.80
2018-07-09T10:43:13.243Z,1.70
2018-07-09T10:44:13.243Z,1.70
2018-07-09T10:45:13.243Z,1.90
2018-07-09T10:46:13.247Z,1.80
2018-07-09T10:47:13.285Z,1.40
2018-07-09T10:48:13.262Z,1.40
2018-07-09T10:49:13.260Z,1.50
2018-07-09T10:50:13.261Z,1.90
2018-07-09T10:51:13.269Z,2.10
2018-07-09T10:52:13.267Z,1.90
2018-07-09T10:53:13.286Z,1.80
2018-07-09T10:54:13.281Z,1.80
2018-07-09T10:55:13.338Z,1.60
2018-07-09T10:56:13.276Z,2.00
2018-07-09T10:57:13.279Z,2.10
2018-07-09T10:58:13.287Z,1.90
2018-07-09T10:59:13.294Z,2.00
2018-07-09T11:00:13.296Z,1.90
2018-07-09T11:01:13.295Z,2.00
2018-07-09T11:02:13.296Z,2.00
2018-07-09T11:03:13.308Z,1.80
2018-07-09T11:04:13.312Z,1.70
2018-07-09T11:05:13.315Z,1.80
2018-07-09T11:06:13.309Z,2.10
2018-07-09T11:07:13.325Z,2.00
2018-07-09T11:08:13.329Z,1.90
2018-07-09T11:09:13.321Z,1.90
2018-07-09T11:10:13.426Z,1.80
2018-07-09T11:11:13.335Z,2.10
2018-07-09T11:12:13.416Z,1.90
2018-07-09T11:13:13.334Z,1.80
2018-07-09T11:14:13.383Z,2.10
2018-07-09T11:15:13.352Z,1.80
2018-07-09T11:16:13.497Z,2.20
2018-07-09T11:17:13.349Z,1.90
2018-07-09T11:18:13.351Z,1.60
2018-07-09T11:19:13.361Z,2.00
2018-07-09T11:20:13.368Z,2.10
2018-07-09T11:21:13.365Z,2.10
2018-07-09T11:22:13.367Z,1.70
2018-07-09T11:23:13.380Z,1.80
2018-07-09T11:24:13.374Z,1.80
2018-07-09T11:25:13.387Z,1.70
2018-07-09T11:26:13.382Z,1.80
2018-07-09T11:27:13.399Z,1.90
2018-07-09T11:28:13.395Z,1.80
2018-07-09T11:29:13.405Z,1.70
2018-07-09T11:30:13.397Z,1.70
2018-07-09T11:31:13.403Z,1.60
2018-07-09T11:32:13.412Z,1.60
2018-07-09T11:33:13.406Z,1.50
2018-07-09T11:34:13.410Z,1.50
2018-07-09T11:35:13.417Z,1.60
2018-07-09T11:36:13.429Z,1.60
2018-07-09T11:37:13.423Z,1.30
2018-07-09T11:38:13.425Z,1.60
2018-07-09T11:39:13.439Z,1.70
2018-07-09T11:40:13.432Z,1.70
2018-07-09T11:41:13.451Z,1.70
2018-07-09T11:42:13.468Z,1.80
2018-07-09T11:43:13.444Z,1.90
2018-07-09T11:44:13.459Z,1.50
2018-07-09T11:45:13.453Z,1.70
2018-07-09T11:46:13.458Z,1.70
2018-07-09T11:47:13.459Z,1.40
2018-07-09T11:48:13.468Z,1.50
2018-07-09T11:49:13.470Z,1.30
2018-07-09T11:50:13.472Z,1.30
2018-07-09T11:51:13.475Z,1.50
2018-07-09T11:52:13.504Z,1.60
2018-07-09T11:53:13.492Z,1.30
2018-07-09T11:54:13.487Z,1.40
2018-07-09T11:55:13.491Z,1.40
2018-07-09T11:56:13.498Z,1.50
2018-07-09T11:57:13.499Z,1.40
2018-07-09T11:58:13.508Z,1.40
2018-07-09T11:59:13.508Z,1.40
2018-07-09T12:00:13.521Z,1.40
2018-07-09T12:01:13.518Z,1.50
2018-07-09T12:02:13.520Z,1.40
2018-07-09T12:03:13.525Z,1.40
2018-07-09T12:04:13.535Z,1.80
2018-07-09T12:05:13.532Z,1.60
2018-07-09T12:06:13.540Z,1.60
2018-07-09T12:07:13.542Z,1.40
2018-07-09T12:08:13.543Z,1.30
2018-07-09T12:09:13.547Z,1.60
2018-07-09T12:10:13.556Z,1.60
2018-07-09T12:11:13.565Z,1.40
2018-07-09T12:12:13.579Z,1.20
2018-07-09T12:13:13.564Z,1.50
2018-07-09T12:14:13.569Z,1.50
2018-07-09T12:15:13.585Z,1.30
2018-07-09T12:16:13.581Z,1.70
2018-07-09T12:17:13.580Z,1.30
2018-07-09T12:18:13.582Z,1.50
2018-07-09T12:19:13.595Z,1.50
2018-07-09T12:20:13.593Z,1.40
2018-07-09T12:21:13.599Z,1.40
2018-07-09T12:22:13.610Z,1.20
2018-07-09T12:23:13.705Z,1.20
2018-07-09T12:24:13.609Z,1.50
2018-07-09T12:25:13.622Z,1.40
2018-07-09T12:26:13.622Z,1.20
2018-07-09T12:27:13.631Z,1.50
2018-07-09T12:28:13.627Z,1.40
2018-07-09T12:29:13.736Z,1.20
2018-07-09T12:30:13.640Z,1.40
2018-07-09T12:31:13.651Z,1.30
2018-07-09T12:32:13.650Z,1.40
2018-07-09T12:33:13.656Z,1.30
2018-07-09T12:34:13.650Z,1.50
2018-07-09T12:35:13.656Z,1.20
2018-07-09T12:36:13.764Z,1.30
2018-07-09T12:37:13.666Z,1.40
2018-07-09T12:38:13.675Z,1.60
2018-07-09T12:39:13.683Z,1.30
2018-07-09T12:40:13.676Z,1.40
2018-07-09T12:41:13.690Z,1.50
2018-07-09T12:42:13.682Z,1.40
2018-07-09T12:43:13.694Z,1.30
2018-07-09T12:44:13.693Z,1.40
2018-07-09T12:45:13.702Z,1.40
2018-07-09T12:46:13.699Z,1.50
2018-07-09T12:47:13.708Z,1.50
2018-07-09T12:48:13.705Z,1.70
2018-07-09T12:49:13.712Z,1.50
2018-07-09T12:50:13.728Z,1.40
2018-07-09T12:51:13.721Z,1.50
2018-07-09T12:52:13.723Z,1.40
2018-07-09T12:53:13.728Z,1.60
2018-07-09T12:54:13.731Z,1.50
2018-07-09T12:55:13.737Z,1.70
2018-07-09T12:56:13.738Z,1.60
2018-07-09T12:57:13.747Z,1.40
2018-07-09T12:58:13.755Z,1.50
2018-07-09T12:59:13.751Z,1.80
2018-07-09T13:00:13.761Z,1.40
2018-07-09T13:01:13.764Z,1.80
2018-07-09T13:02:13.763Z,1.60
2018-07-09T13:03:13.783Z,1.70
2018-07-09T13:04:13.788Z,1.50
2018-07-09T13:05:13.783Z,1.50
2018-07-09T13:06:13.782Z,1.50
2018-07-09T13:07:13.786Z,1.40
2018-07-09T13:08:13.788Z,1.50
2018-07-09T13:09:13.793Z,1.40
2018-07-09T13:10:13.799Z,1.50
2018-07-09T13:11:13.811Z,1.60
2018-07-09T13:12:13.812Z,1.50
2018-07-09T13:13:13.811Z,1.50
2018-07-09T13:14:13.820Z,1.70
2018-07-09T13:15:13.821Z,1.40
2018-07-09T13:16:13.824Z,1.70
2018-07-09T13:17:13.829Z,1.40
2018-07-09T13:18:13.835Z,1.70